| time (UTC) | temp F | wind direction | speed MPH | gust MPH | rain 1hr in | rain 24hr in | rain mn in | humidity % | barometer mb |
| 20260906040116 | 58 | 33 | 2.0 | 10.0 | 0.00 | 0.00 | 0.00 | 78 | 1015.1 |
| 20260906034558 | 58 | 19 | 2.0 | 8.0 | 0.00 | 0.00 | 0.00 | 77 | 1015.0 |
| 20260906033058 | 58 | 26 | 3.0 | 6.0 | 0.00 | 0.00 | 0.00 | 77 | 1014.9 |
| 20260906031610 | 59 | 22 | 2.0 | 9.0 | 0.00 | 0.00 | 0.00 | 76 | 1014.9 |
| 20260906030108 | 59 | 34 | 4.0 | 9.0 | 0.00 | 0.00 | 0.00 | 75 | 1014.8 |
| 20260906024600 | 59 | 21 | 3.0 | 6.0 | 0.00 | 0.00 | 0.00 | 74 | 1014.8 |
| 20260906023115 | 60 | 39 | 2.0 | 9.0 | 0.00 | 0.00 | 0.00 | 74 | 1014.6 |
| 20260906021556 | 60 | 24 | 2.0 | 9.0 | 0.00 | 0.00 | 0.00 | 74 | 1014.5 |
| 20260906020107 | 60 | 89 | 1.0 | 7.0 | 0.00 | 0.00 | 0.00 | 74 | 1014.6 |
| 20260906014626 | 61 | 30 | 3.0 | 10.0 | 0.00 | 0.00 | 0.00 | 73 | 1014.7 |
| 20260906013100 | 61 | 40 | 2.0 | 12.0 | 0.00 | 0.00 | 0.00 | 73 | 1014.6 |
| 20260906011600 | 61 | 47 | 4.0 | 14.0 | 0.00 | 0.00 | 0.00 | 73 | 1014.5 |
| 20260906010058 | 61 | 43 | 5.0 | 11.0 | 0.00 | 0.00 | 0.00 | 73 | 1014.5 |
| 20260906004614 | 61 | 72 | 3.0 | 11.0 | 0.00 | 0.00 | 0.00 | 74 | 1014.4 |
| 20260906003104 | 62 | 25 | 1.0 | 4.0 | 0.00 | 0.00 | 0.00 | 74 | 1014.3 |
| 20260906001559 | 63 | 0 | 0.0 | 4.0 | 0.00 | 0.00 | 0.00 | 72 | 1014.3 |
| 20260906000107 | 63 | 40 | 1.0 | 5.0 | 0.00 | 0.00 | 0.00 | 71 | 1014.2 |
| 20260905234601 | 64 | 30 | 1.0 | 6.0 | 0.00 | 0.00 | 0.00 | 70 | 1014.1 |
| 20260905233100 | 65 | 65 | 2.0 | 8.0 | 0.00 | 0.00 | 0.00 | 68 | 1014.1 |
| 20260905231557 | 65 | 57 | 4.0 | 11.0 | 0.00 | 0.00 | 0.00 | 67 | 1013.9 |
| 20260905230104 | 66 | 54 | 2.0 | 12.0 | 0.00 | 0.00 | 0.00 | 66 | 1013.8 |
| 20260905224607 | 67 | 37 | 3.0 | 10.0 | 0.00 | 0.00 | 0.00 | 66 | 1013.8 |
| 20260905223107 | 67 | 62 | 3.0 | 11.0 | 0.00 | 0.00 | 0.00 | 63 | 1013.6 |
| 20260905221553 | 69 | 0 | 0.0 | 5.0 | 0.00 | 0.00 | 0.00 | 60 | 1013.5 |
| 20260905220116 | 69 | 49 | 2.0 | 10.0 | 0.00 | 0.00 | 0.00 | 60 | 1013.3 |
| 20260905214557 | 69 | 336 | 3.0 | 9.0 | 0.00 | 0.00 | 0.00 | 59 | 1013.0 |
| 20260905213056 | 69 | 45 | 3.0 | 9.0 | 0.00 | 0.00 | 0.00 | 59 | 1012.8 |
| 20260905211554 | 69 | 63 | 3.0 | 9.0 | 0.00 | 0.00 | 0.00 | 61 | 1012.8 |
| 20260905210104 | 70 | 25 | 5.0 | 17.0 | 0.00 | 0.00 | 0.00 | 59 | 1012.7 |
| 20260905204556 | 70 | 27 | 5.0 | 14.0 | 0.00 | 0.00 | 0.00 | 59 | 1012.5 |
| 20260905203059 | 72 | 0 | 2.0 | 13.0 | 0.00 | 0.00 | 0.00 | 59 | 1012.4 |
| 20260905201553 | 69 | 21 | 3.0 | 9.0 | 0.00 | 0.00 | 0.00 | 63 | 1012.4 |
| 20260905200059 | 69 | 51 | 5.0 | 14.0 | 0.00 | 0.00 | 0.00 | 64 | 1012.4 |
| 20260905194556 | 69 | 36 | 4.0 | 12.0 | 0.00 | 0.00 | 0.00 | 64 | 1012.2 |
| 20260905193056 | 70 | 30 | 3.0 | 13.0 | 0.00 | 0.00 | 0.00 | 63 | 1012.2 |
| 20260905191551 | 71 | 55 | 6.0 | 12.0 | 0.00 | 0.00 | 0.00 | 62 | 1012.0 |
| 20260905190100 | 70 | 47 | 7.0 | 20.0 | 0.00 | 0.00 | 0.00 | 63 | 1012.1 |
| 20260905184603 | 71 | 5 | 2.0 | 14.0 | 0.00 | 0.00 | 0.00 | 65 | 1012.0 |
| 20260905183117 | 70 | 351 | 6.0 | 16.0 | 0.00 | 0.00 | 0.00 | 64 | 1012.0 |
| 20260905181559 | 69 | 340 | 4.0 | 14.0 | 0.00 | 0.00 | 0.00 | 66 | 1012.1 |
| 20260905180052 | 68 | 16 | 6.0 | 16.0 | 0.00 | 0.00 | 0.00 | 67 | 1012.3 |
| 20260905174556 | 67 | 42 | 5.0 | 14.0 | 0.00 | 0.00 | 0.00 | 69 | 1012.4 |
| 20260905173055 | 68 | 34 | 9.0 | 18.0 | 0.00 | 0.00 | 0.00 | 68 | 1012.4 |
| 20260905171601 | 66 | 11 | 6.0 | 14.0 | 0.00 | 0.00 | 0.00 | 71 | 1012.4 |
| 20260905170050 | 66 | 273 | 3.0 | 13.0 | 0.00 | 0.00 | 0.00 | 72 | 1012.5 |
| 20260905164605 | 66 | 26 | 7.0 | 13.0 | 0.00 | 0.00 | 0.00 | 71 | 1012.7 |
| 20260905163105 | 67 | 293 | 7.0 | 13.0 | 0.00 | 0.00 | 0.00 | 70 | 1012.5 |
| 20260905161554 | 67 | 44 | 5.0 | 15.0 | 0.00 | 0.00 | 0.00 | 73 | 1012.5 |
| 20260905160119 | 65 | 28 | 3.0 | 14.0 | 0.00 | 0.00 | 0.00 | 81 | 1012.5 |
| 20260905154557 | 64 | 55 | 6.0 | 14.0 | 0.00 | 0.00 | 0.00 | 82 | 1012.5 |
| 20260905153101 | 65 | 23 | 5.0 | 12.0 | 0.00 | 0.00 | 0.00 | 81 | 1012.3 |
| 20260905151609 | 64 | 51 | 7.0 | 15.0 | 0.00 | 0.00 | 0.00 | 82 | 1012.4 |
| 20260905150057 | 65 | 9 | 5.0 | 12.0 | 0.00 | 0.00 | 0.00 | 77 | 1012.2 |
| 20260905144555 | 67 | 26 | 4.0 | 13.0 | 0.00 | 0.00 | 0.00 | 75 | 1012.0 |
| 20260905143055 | 65 | 0 | 3.0 | 13.0 | 0.00 | 0.00 | 0.00 | 77 | 1012.0 |
| 20260905141555 | 64 | 36 | 3.0 | 15.0 | 0.00 | 0.00 | 0.00 | 80 | 1012.1 |
| 20260905140107 | 64 | 28 | 3.0 | 11.0 | 0.00 | 0.00 | 0.00 | 81 | 1011.8 |
| 20260905134557 | 62 | 26 | 3.0 | 6.0 | 0.00 | 0.00 | 0.00 | 84 | 1011.7 |
| 20260905133055 | 63 | 67 | 5.0 | 12.0 | 0.00 | 0.00 | 0.00 | 83 | 1011.7 |
| 20260905131607 | 63 | 29 | 7.0 | 15.0 | 0.00 | 0.00 | 0.00 | 81 | 1011.5 |
| 20260905130101 | 62 | 350 | 5.0 | 12.0 | 0.00 | 0.00 | 0.00 | 83 | 1011.3 |
| 20260905124557 | 62 | 57 | 4.0 | 12.0 | 0.00 | 0.00 | 0.00 | 84 | 1011.3 |
| 20260905123059 | 62 | 61 | 7.0 | 20.0 | 0.00 | 0.00 | 0.00 | 82 | 1011.3 |
| 20260905121559 | 62 | 37 | 4.0 | 13.0 | 0.00 | 0.00 | 0.00 | 83 | 1011.1 |
| 20260905120107 | 61 | 38 | 3.0 | 12.0 | 0.00 | 0.00 | 0.00 | 85 | 1011.0 |
| 20260905114554 | 61 | 40 | 3.0 | 10.0 | 0.00 | 0.00 | 0.00 | 86 | 1010.8 |
| 20260905113051 | 60 | 37 | 3.0 | 9.0 | 0.00 | 0.00 | 0.00 | 87 | 1010.7 |
| 20260905111611 | 60 | 5 | 1.0 | 9.0 | 0.00 | 0.00 | 0.00 | 88 | 1010.6 |
| 20260905110059 | 60 | 9 | 1.0 | 6.0 | 0.00 | 0.00 | 0.00 | 88 | 1010.6 |
| 20260905104555 | 60 | 0 | 1.0 | 5.0 | 0.00 | 0.00 | 0.00 | 88 | 1010.5 |
| 20260905103051 | 60 | 88 | 2.0 | 5.0 | 0.00 | 0.00 | 0.00 | 88 | 1010.4 |
| 20260905101602 | 60 | 55 | 4.0 | 9.0 | 0.00 | 0.00 | 0.00 | 87 | 1010.2 |
| 20260905100059 | 60 | 34 | 3.0 | 10.0 | 0.00 | 0.00 | 0.00 | 87 | 1010.3 |
| 20260905094557 | 60 | 66 | 4.0 | 9.0 | 0.00 | 0.00 | 0.00 | 87 | 1009.9 |
| 20260905093101 | 60 | 40 | 2.0 | 9.0 | 0.00 | 0.00 | 0.00 | 87 | 1009.9 |
| 20260905091558 | 60 | 36 | 4.0 | 7.0 | 0.00 | 0.00 | 0.00 | 87 | 1009.9 |
| 20260905090055 | 61 | 19 | 2.0 | 9.0 | 0.00 | 0.00 | 0.00 | 86 | 1009.8 |
| 20260905084606 | 61 | 41 | 4.0 | 10.0 | 0.00 | 0.00 | 0.00 | 86 | 1009.8 |
| 20260905083101 | 61 | 30 | 3.0 | 8.0 | 0.00 | 0.00 | 0.00 | 85 | 1009.6 |
| 20260905081556 | 61 | 26 | 2.0 | 4.0 | 0.00 | 0.00 | 0.00 | 84 | 1009.6 |
| 20260905080056 | 62 | 34 | 2.0 | 7.0 | 0.00 | 0.00 | 0.00 | 83 | 1009.5 |
| 20260905074558 | 62 | 18 | 2.0 | 7.0 | 0.00 | 0.00 | 0.00 | 83 | 1009.4 |
| 20260905073105 | 62 | 13 | 2.0 | 8.0 | 0.00 | 0.00 | 0.00 | 83 | 1009.5 |
| 20260905071557 | 62 | 265 | 1.0 | 4.0 | 0.00 | 0.00 | 0.00 | 83 | 1009.5 |
| 20260905070101 | 62 | 263 | 0.0 | 4.0 | 0.00 | 0.00 | 0.00 | 83 | 1009.6 |
| 20260905064552 | 62 | 0 | 0.0 | 3.0 | 0.00 | 0.00 | 0.00 | 83 | 1009.7 |
| 20260905063051 | 62 | 311 | 1.0 | 4.0 | 0.00 | 0.00 | 0.00 | 83 | 1009.6 |
| 20260905061554 | 62 | 300 | 2.0 | 5.0 | 0.00 | 0.00 | 0.00 | 83 | 1009.6 |
| 20260905060059 | 63 | 0 | 0.0 | 3.0 | 0.00 | 0.00 | 0.00 | 82 | 1009.7 |
| 20260905054554 | 63 | 0 | 0.0 | 3.0 | 0.00 | 0.00 | 0.00 | 81 | 1009.7 |
| 20260905053127 | 63 | 355 | 1.0 | 5.0 | 0.00 | 0.00 | 0.00 | 81 | 1009.7 |
| 20260905051558 | 63 | 0 | 2.0 | 5.0 | 0.00 | 0.00 | 0.00 | 80 | 1009.8 |
| 20260905050059 | 64 | 0 | 1.0 | 5.0 | 0.00 | 0.00 | 0.00 | 80 | 1009.9 |
| 20260905044555 | 64 | 281 | 1.0 | 8.0 | 0.00 | 0.00 | 0.00 | 79 | 1009.7 |
| 20260905043049 | 64 | 360 | 2.0 | 8.0 | 0.00 | 0.00 | 0.00 | 79 | 1009.7 |
| 20260905041558 | 64 | 265 | 1.0 | 4.0 | 0.00 | 0.00 | 0.00 | 79 | 1009.9 |